Goldsberry, Missouri
Current Conditions -  °F | °C
As of 11:55 PM on Sunday 19 Oct 2014 (Local Time) from KIRK Reporting Station
Clear Clear  
Wind Chill: 54°   Ceiling: Unl
Heat Index: 54°   Visibility: 10mi
Dew Point: 47°   Wind: 9mph
Humidity: 77%   Direction: 220°SW
Pressure: 29.98"   Gusts: NA
Location:  39.9344°N, 92.7744°W
Report Text: KIRK 200455Z AUTO 22008KT 10SM CLR 12/08 A2998 RMK AO2 SLP153 T01220083
Loading
Personal Weather Stations






























Interactive Weather Map
Tropical Storm Tracking
New forecast layout! Learn more

10-Day Weather Forecast

Advertisements
Track Severe Weather on mobile